createdAt,value
2023-03-30T00:00:35.532Z,4.45
2023-03-30T00:06:42.404Z,2.65
2023-03-30T00:09:44.060Z,3.33
2023-03-30T00:12:47.181Z,3.17
2023-03-30T00:15:49.368Z,3.45
2023-03-30T00:21:52.345Z,2.88
2023-03-30T00:24:54.085Z,3.42
2023-03-30T00:27:55.819Z,3.08
2023-03-30T00:30:57.407Z,7.88
2023-03-30T00:33:58.906Z,3.13
2023-03-30T00:37:00.392Z,3.75
2023-03-30T00:40:01.834Z,3.10
2023-03-30T00:43:04.936Z,3.20
2023-03-30T00:46:06.480Z,5.18
2023-03-30T00:49:09.408Z,5.28
2023-03-30T00:52:11.224Z,4.40
2023-03-30T00:55:12.846Z,3.75
2023-03-30T00:58:15.594Z,3.50
2023-03-30T01:01:18.892Z,3.17
2023-03-30T01:04:20.817Z,3.70
2023-03-30T01:07:24.237Z,3.92
2023-03-30T01:10:26.034Z,3.53
2023-03-30T01:13:28.687Z,4.07
2023-03-30T01:17:01.647Z,4.72
2023-03-30T01:20:21.097Z,5.18
2023-03-30T01:23:47.153Z,4.53
2023-03-30T01:27:03.274Z,4.05
2023-03-30T01:30:32.627Z,3.97
2023-03-30T01:34:25.053Z,4.15
2023-03-30T01:38:03.986Z,5.45
2023-03-30T01:41:31.363Z,4.97
2023-03-30T01:45:07.079Z,5.80
2023-03-30T01:48:14.479Z,5.65
2023-03-30T01:51:21.492Z,5.22
2023-03-30T01:54:24.011Z,4.97
2023-03-30T01:57:30.268Z,5.30
2023-03-30T02:00:32.090Z,5.35
2023-03-30T02:03:36.327Z,5.85
2023-03-30T02:06:40.766Z,5.65
2023-03-30T02:09:42.292Z,6.90
2023-03-30T02:12:44.802Z,6.68
2023-03-30T02:15:51.634Z,6.13
2023-03-30T02:18:54.638Z,6.40
2023-03-30T02:21:56.287Z,7.50
2023-03-30T02:24:58.390Z,6.75
2023-03-30T02:28:00.184Z,6.95
2023-03-30T02:31:01.922Z,10.20
2023-03-30T02:34:12.706Z,7.28
2023-03-30T02:37:48.812Z,7.78
2023-03-30T02:41:17.277Z,7.55
2023-03-30T02:44:41.032Z,7.45
2023-03-30T02:47:46.306Z,6.18
2023-03-30T02:51:09.430Z,6.28
2023-03-30T02:54:28.129Z,10.52
2023-03-30T02:57:41.624Z,6.32
2023-03-30T03:01:09.846Z,7.00
2023-03-30T03:04:11.574Z,8.52
2023-03-30T03:07:13.222Z,7.50
2023-03-30T03:10:14.946Z,7.25
2023-03-30T03:13:16.797Z,5.93
2023-03-30T03:16:18.461Z,7.95
2023-03-30T03:19:20.005Z,6.85
2023-03-30T03:22:21.619Z,7.10
2023-03-30T03:25:23.117Z,6.63
2023-03-30T03:28:24.631Z,7.80
2023-03-30T03:31:27.319Z,8.27
2023-03-30T03:34:31.697Z,9.40
2023-03-30T03:37:33.205Z,6.95
2023-03-30T03:40:34.695Z,7.72
2023-03-30T03:43:46.617Z,7.57
2023-03-30T03:46:48.336Z,6.47
2023-03-30T03:49:49.818Z,8.05
2023-03-30T03:52:51.301Z,9.03
2023-03-30T03:55:52.793Z,7.77
2023-03-30T03:58:54.266Z,7.85
2023-03-30T04:01:55.834Z,7.65
2023-03-30T04:04:57.780Z,7.43
2023-03-30T04:07:59.314Z,7.53
2023-03-30T04:11:08.274Z,7.28
2023-03-30T04:14:09.771Z,7.82
2023-03-30T04:17:11.769Z,13.68
2023-03-30T04:20:13.286Z,17.73
2023-03-30T04:23:16.490Z,12.15
2023-03-30T04:26:18.035Z,8.55
2023-03-30T04:29:20.758Z,8.85
2023-03-30T04:32:22.274Z,8.88
2023-03-30T04:35:23.762Z,7.72
2023-03-30T04:38:25.231Z,7.30
2023-03-30T04:41:33.758Z,7.68
2023-03-30T04:44:35.511Z,7.80
2023-03-30T04:47:37.886Z,7.43
2023-03-30T04:50:39.396Z,7.15
2023-03-30T04:53:43.265Z,7.95
2023-03-30T04:56:44.792Z,7.25
2023-03-30T04:59:46.558Z,6.75
2023-03-30T05:02:48.116Z,7.95
2023-03-30T05:05:49.646Z,8.13
2023-03-30T05:08:51.439Z,10.10
2023-03-30T05:11:52.937Z,14.15
2023-03-30T05:14:54.431Z,12.30
2023-03-30T05:17:56.638Z,10.75
2023-03-30T05:24:00.338Z,9.15
2023-03-30T05:27:02.401Z,8.82
2023-03-30T05:30:04.411Z,8.55
2023-03-30T05:33:05.977Z,7.93
2023-03-30T05:36:07.767Z,8.60
2023-03-30T05:39:09.301Z,8.57
2023-03-30T05:42:11.659Z,8.65
2023-03-30T05:45:13.186Z,7.50
2023-03-30T05:48:14.636Z,8.63
2023-03-30T05:51:16.456Z,8.17
2023-03-30T05:54:17.890Z,8.70
2023-03-30T05:57:19.428Z,8.30
2023-03-30T06:00:22.589Z,7.47
2023-03-30T06:03:24.187Z,8.95
2023-03-30T06:06:25.799Z,7.70
2023-03-30T06:09:27.334Z,7.68
2023-03-30T06:12:28.805Z,10.95
2023-03-30T06:15:30.353Z,7.47
2023-03-30T06:18:31.850Z,10.13
2023-03-30T06:21:33.348Z,8.60
2023-03-30T06:24:34.902Z,9.95
2023-03-30T06:27:36.467Z,12.35
2023-03-30T06:30:38.786Z,13.40
2023-03-30T06:36:45.978Z,12.38
2023-03-30T06:39:47.897Z,13.68
2023-03-30T06:42:49.361Z,14.85
2023-03-30T06:45:55.092Z,9.37
2023-03-30T06:48:57.001Z,12.32
2023-03-30T06:51:59.566Z,9.75
2023-03-30T06:55:04.022Z,8.90
2023-03-30T06:58:05.514Z,9.40
2023-03-30T07:01:13.825Z,10.23
2023-03-30T07:04:16.026Z,9.95
2023-03-30T07:10:19.567Z,9.95
2023-03-30T07:13:21.204Z,9.60
2023-03-30T07:16:22.767Z,9.70
2023-03-30T07:19:24.256Z,9.77
2023-03-30T07:22:25.999Z,10.00
2023-03-30T07:25:27.526Z,10.13
2023-03-30T07:28:29.062Z,9.70
2023-03-30T07:31:30.587Z,9.82
2023-03-30T07:34:33.472Z,13.70
2023-03-30T07:37:35.585Z,14.70
2023-03-30T07:43:40.533Z,12.40
2023-03-30T07:46:42.388Z,10.82
2023-03-30T07:49:43.919Z,10.20
2023-03-30T07:52:45.406Z,10.40
2023-03-30T07:55:47.602Z,10.00
2023-03-30T08:01:51.970Z,11.77
2023-03-30T08:04:53.546Z,12.40
2023-03-30T08:07:55.167Z,12.15
2023-03-30T08:10:56.650Z,14.98
2023-03-30T08:13:58.088Z,14.95
2023-03-30T08:16:59.600Z,15.90
2023-03-30T08:20:01.864Z,15.23
2023-03-30T08:26:05.366Z,11.13
2023-03-30T08:29:07.051Z,9.32
2023-03-30T08:32:08.587Z,8.75
2023-03-30T08:35:10.162Z,10.05
2023-03-30T08:38:12.232Z,9.23
2023-03-30T08:41:28.223Z,8.65
2023-03-30T08:44:39.714Z,8.70
2023-03-30T08:47:43.321Z,8.90
2023-03-30T08:50:48.075Z,9.00
2023-03-30T08:53:57.479Z,9.02
2023-03-30T08:57:26.837Z,8.13
2023-03-30T09:00:49.969Z,11.13
2023-03-30T09:04:09.560Z,8.10
2023-03-30T09:07:46.669Z,9.10
2023-03-30T09:11:02.680Z,8.85
2023-03-30T09:14:05.360Z,9.40
2023-03-30T09:17:14.970Z,9.15
2023-03-30T09:20:23.047Z,8.40
2023-03-30T09:23:26.813Z,9.27
2023-03-30T09:26:50.297Z,9.18
2023-03-30T09:29:51.802Z,8.52
2023-03-30T09:33:17.716Z,8.00
2023-03-30T09:36:38.355Z,10.23
2023-03-30T09:39:41.593Z,9.48
2023-03-30T09:42:48.092Z,8.75
2023-03-30T09:45:49.590Z,8.35
2023-03-30T09:48:51.354Z,9.07
2023-03-30T09:51:55.205Z,8.20
2023-03-30T09:54:57.374Z,9.00
2023-03-30T10:01:20.554Z,9.13
2023-03-30T10:04:22.133Z,9.73
2023-03-30T10:07:25.115Z,10.00
2023-03-30T10:10:26.455Z,10.95
2023-03-30T10:13:32.240Z,9.57
2023-03-30T10:16:33.980Z,8.70
2023-03-30T10:19:38.016Z,17.98
2023-03-30T10:22:53.966Z,10.90
2023-03-30T10:25:55.454Z,11.38
2023-03-30T10:28:57.635Z,11.75
2023-03-30T10:35:05.356Z,10.13
2023-03-30T10:38:07.002Z,11.07
2023-03-30T10:41:13.782Z,9.90
2023-03-30T10:44:43.146Z,8.68
2023-03-30T10:48:06.633Z,8.50
2023-03-30T10:51:25.590Z,8.52
2023-03-30T10:54:39.613Z,8.80
2023-03-30T10:58:04.258Z,9.80
2023-03-30T11:01:36.662Z,8.65
2023-03-30T11:04:47.041Z,9.20
2023-03-30T11:08:04.075Z,9.68
2023-03-30T11:11:06.012Z,9.45
2023-03-30T11:14:10.630Z,8.90
2023-03-30T11:17:16.606Z,8.00
2023-03-30T11:20:29.342Z,9.00
2023-03-30T11:23:39.013Z,8.77
2023-03-30T11:26:47.398Z,9.23
2023-03-30T11:30:07.820Z,8.80
2023-03-30T11:33:36.164Z,8.40
2023-03-30T11:36:59.392Z,8.43
2023-03-30T11:40:17.541Z,9.18
2023-03-30T11:43:19.911Z,8.77
2023-03-30T11:46:30.309Z,8.10
2023-03-30T11:50:03.047Z,8.30
2023-03-30T11:53:25.632Z,9.45
2023-03-30T11:56:52.085Z,8.88
2023-03-30T12:00:01.797Z,10.48
2023-03-30T12:03:28.420Z,7.38
2023-03-30T12:06:34.613Z,8.48
2023-03-30T12:09:51.661Z,7.10
2023-03-30T12:12:55.573Z,7.75
2023-03-30T12:16:02.552Z,7.38
2023-03-30T12:19:04.434Z,7.55
2023-03-30T12:22:31.857Z,7.80
2023-03-30T12:26:09.999Z,7.38
2023-03-30T12:32:22.852Z,7.40
2023-03-30T12:35:49.409Z,6.82
2023-03-30T12:38:50.991Z,6.50
2023-03-30T12:42:04.349Z,7.38
2023-03-30T12:45:21.172Z,7.40
2023-03-30T12:48:59.528Z,5.88
2023-03-30T12:52:21.590Z,5.75
2023-03-30T12:55:44.647Z,8.75
2023-03-30T12:58:58.458Z,6.38
2023-03-30T13:02:31.238Z,7.93
2023-03-30T13:05:34.599Z,6.72
2023-03-30T13:08:40.733Z,8.20
2023-03-30T13:11:43.845Z,6.93
2023-03-30T13:14:46.373Z,7.03
2023-03-30T13:18:00.838Z,6.93
2023-03-30T13:21:26.071Z,6.47
2023-03-30T13:24:30.587Z,6.10
2023-03-30T13:27:34.340Z,5.57
2023-03-30T13:30:35.927Z,4.80
2023-03-30T13:33:37.842Z,5.85
2023-03-30T13:40:21.817Z,4.72
2023-03-30T13:43:58.186Z,4.65
2023-03-30T13:47:09.698Z,4.68
2023-03-30T13:50:17.156Z,5.05
2023-03-30T13:53:18.651Z,4.70
2023-03-30T13:56:20.299Z,5.30
2023-03-30T13:59:22.855Z,4.30
2023-03-30T14:02:24.395Z,6.00
2023-03-30T14:05:27.774Z,4.95
2023-03-30T14:08:34.152Z,4.28
2023-03-30T14:11:40.378Z,4.78
2023-03-30T14:14:46.639Z,4.40
2023-03-30T14:17:55.436Z,4.03
2023-03-30T14:20:58.155Z,4.22
2023-03-30T14:23:59.640Z,4.68
2023-03-30T14:27:21.343Z,4.13
2023-03-30T14:30:29.426Z,4.40
2023-03-30T14:33:32.932Z,4.35
2023-03-30T14:36:34.435Z,4.28
2023-03-30T14:39:40.478Z,3.90
2023-03-30T14:42:42.730Z,3.80
2023-03-30T14:45:44.295Z,3.17
2023-03-30T14:48:47.672Z,2.65
2023-03-30T14:51:51.898Z,2.67
2023-03-30T14:55:06.084Z,2.70
2023-03-30T14:58:13.596Z,2.65
2023-03-30T15:01:16.987Z,2.30
2023-03-30T15:04:18.919Z,2.75
2023-03-30T15:10:35.387Z,2.90
2023-03-30T15:13:40.175Z,2.92
2023-03-30T15:16:41.764Z,2.90
2023-03-30T15:19:43.217Z,2.20
2023-03-30T15:22:49.113Z,2.45
2023-03-30T15:25:50.666Z,2.45
2023-03-30T15:28:53.654Z,2.50
2023-03-30T15:32:05.378Z,2.95
2023-03-30T15:35:16.089Z,2.40
2023-03-30T15:38:17.749Z,2.50
2023-03-30T15:41:22.344Z,2.78
2023-03-30T15:44:24.156Z,3.30
2023-03-30T15:47:25.723Z,2.60
2023-03-30T15:50:27.288Z,3.10
2023-03-30T15:53:39.058Z,2.63
2023-03-30T15:56:41.575Z,2.53
2023-03-30T15:59:49.944Z,2.80
2023-03-30T16:02:57.687Z,3.00
2023-03-30T16:06:00.652Z,3.70
2023-03-30T16:09:02.131Z,4.00
2023-03-30T16:12:03.747Z,3.53
2023-03-30T16:15:05.646Z,3.50
2023-03-30T16:18:07.156Z,5.35
2023-03-30T16:21:10.766Z,3.42
2023-03-30T16:24:12.277Z,3.50
2023-03-30T16:27:14.715Z,3.97
2023-03-30T16:30:19.013Z,5.13
2023-03-30T16:33:20.451Z,3.63
2023-03-30T16:36:22.511Z,3.90
2023-03-30T16:42:27.392Z,4.40
2023-03-30T16:45:28.929Z,4.63
2023-03-30T16:48:30.387Z,5.75
2023-03-30T16:51:31.879Z,5.45
2023-03-30T16:54:33.438Z,4.80
2023-03-30T16:57:35.023Z,4.68
2023-03-30T17:00:39.622Z,4.07
2023-03-30T17:03:42.302Z,4.53
2023-03-30T17:06:43.764Z,10.57
2023-03-30T17:09:45.494Z,9.05
2023-03-30T17:12:46.947Z,5.55
2023-03-30T17:15:48.419Z,14.27
2023-03-30T17:18:49.847Z,5.10
2023-03-30T17:21:51.794Z,6.17
2023-03-30T17:24:53.329Z,5.22
2023-03-30T17:27:55.496Z,5.15
2023-03-30T17:34:01.932Z,5.75
2023-03-30T17:37:03.434Z,7.53
2023-03-30T17:40:19.728Z,5.60
2023-03-30T17:43:21.432Z,5.18
2023-03-30T17:46:23.039Z,5.95
2023-03-30T17:49:24.542Z,5.53
2023-03-30T17:52:30.148Z,5.47
2023-03-30T17:55:32.675Z,6.97
2023-03-30T17:58:35.285Z,7.82
2023-03-30T18:01:36.810Z,6.63
2023-03-30T18:04:38.296Z,6.32
2023-03-30T18:07:39.947Z,6.13
2023-03-30T18:10:41.894Z,6.47
2023-03-30T18:13:43.417Z,6.65
2023-03-30T18:16:45.996Z,6.00
2023-03-30T18:19:47.726Z,5.32
2023-03-30T18:22:49.436Z,4.95
2023-03-30T18:25:51.349Z,8.10
2023-03-30T18:28:52.880Z,5.15
2023-03-30T18:31:54.413Z,5.05
2023-03-30T18:34:55.949Z,5.47
2023-03-30T18:38:00.885Z,5.20
2023-03-30T18:41:02.453Z,5.35
2023-03-30T18:44:04.253Z,5.70
2023-03-30T18:47:05.772Z,8.30
2023-03-30T18:50:39.938Z,8.07
2023-03-30T18:53:41.431Z,6.20
2023-03-30T18:56:44.073Z,7.03
2023-03-30T18:59:45.559Z,7.45
2023-03-30T19:02:47.265Z,6.93
2023-03-30T19:05:49.231Z,5.53
2023-03-30T19:08:50.850Z,5.15
2023-03-30T19:11:52.359Z,5.50
2023-03-30T19:14:53.855Z,5.47
2023-03-30T19:17:55.433Z,5.37
2023-03-30T19:20:57.478Z,5.00
2023-03-30T19:23:58.949Z,5.13
2023-03-30T19:27:00.442Z,5.03
2023-03-30T19:30:02.054Z,4.53
2023-03-30T19:33:05.755Z,5.25
2023-03-30T19:36:07.330Z,5.80
2023-03-30T19:39:08.879Z,5.18
2023-03-30T19:42:13.917Z,5.50
2023-03-30T19:45:17.656Z,4.70
2023-03-30T19:48:19.133Z,5.10
2023-03-30T19:51:21.808Z,5.30
2023-03-30T19:54:26.682Z,4.88
2023-03-30T19:57:28.830Z,5.07
2023-03-30T20:03:37.101Z,4.55
2023-03-30T20:06:39.233Z,5.25
2023-03-30T20:09:41.164Z,4.53
2023-03-30T20:12:42.744Z,4.95
2023-03-30T20:15:45.241Z,5.63
2023-03-30T20:18:47.928Z,8.40
2023-03-30T20:21:49.403Z,5.15
2023-03-30T20:24:50.863Z,4.83
2023-03-30T20:27:52.875Z,5.17
2023-03-30T20:30:57.506Z,8.05
2023-03-30T20:33:59.044Z,6.22
2023-03-30T20:37:00.548Z,5.15
2023-03-30T20:40:03.861Z,5.17
2023-03-30T20:43:10.558Z,6.15
2023-03-30T20:46:13.999Z,5.47
2023-03-30T20:49:15.727Z,5.88
2023-03-30T20:52:17.366Z,4.55
2023-03-30T20:55:18.859Z,5.03
2023-03-30T20:58:22.248Z,5.17
2023-03-30T21:01:26.483Z,5.97
2023-03-30T21:04:28.605Z,5.03
2023-03-30T21:07:30.193Z,4.65
2023-03-30T21:10:31.691Z,6.00
2023-03-30T21:13:33.638Z,5.40
2023-03-30T21:16:36.757Z,5.22
2023-03-30T21:19:38.287Z,4.93
2023-03-30T21:22:39.766Z,5.57
2023-03-30T21:25:42.067Z,4.67
2023-03-30T21:28:43.514Z,5.00
2023-03-30T21:31:45.034Z,5.13
2023-03-30T21:34:46.509Z,5.17
2023-03-30T21:37:47.966Z,4.50
2023-03-30T21:41:06.496Z,4.35
2023-03-30T21:44:08.108Z,4.85
2023-03-30T21:47:09.673Z,4.80
2023-03-30T21:50:11.246Z,4.60
2023-03-30T21:53:12.713Z,4.93
2023-03-30T21:56:14.361Z,5.40
2023-03-30T21:59:15.890Z,4.70
2023-03-30T22:02:17.413Z,5.23
2023-03-30T22:05:18.961Z,6.00
2023-03-30T22:08:20.486Z,4.97
2023-03-30T22:11:23.490Z,5.07
2023-03-30T22:14:24.959Z,4.75
2023-03-30T22:17:35.154Z,4.67
2023-03-30T22:20:39.023Z,4.65
2023-03-30T22:23:40.572Z,5.15
2023-03-30T22:26:42.038Z,4.33
2023-03-30T22:29:43.494Z,4.70
2023-03-30T22:32:45.027Z,4.50
2023-03-30T22:35:46.894Z,5.37
2023-03-30T22:38:48.739Z,5.28
2023-03-30T22:41:50.365Z,4.50
2023-03-30T22:44:51.869Z,4.75
2023-03-30T22:47:53.412Z,4.90
2023-03-30T22:50:54.945Z,5.20
2023-03-30T22:53:58.071Z,4.60
2023-03-30T22:56:59.667Z,4.90
2023-03-30T23:00:06.840Z,4.63
2023-03-30T23:03:08.449Z,4.60
2023-03-30T23:06:10.178Z,5.10
2023-03-30T23:09:13.541Z,4.87
2023-03-30T23:12:15.113Z,4.78
2023-03-30T23:15:18.529Z,4.53
2023-03-30T23:18:20.412Z,4.55
2023-03-30T23:21:22.312Z,4.72
2023-03-30T23:24:24.038Z,4.63
2023-03-30T23:27:25.552Z,5.30
2023-03-30T23:30:27.070Z,4.67
2023-03-30T23:33:28.597Z,4.80
2023-03-30T23:36:30.736Z,4.50
2023-03-30T23:39:33.020Z,5.90
2023-03-30T23:45:41.133Z,4.50
2023-03-30T23:48:42.727Z,5.30
2023-03-30T23:51:44.906Z,4.38
2023-03-30T23:54:52.584Z,4.47
2023-03-30T23:57:54.058Z,4.22
